Lower Edmonton, United Kingdom
Current Conditions -  °F | °C
As of 7:50 PM on Friday 31 Oct 2014 (Local Time) from EGLC Reporting Station
Clear Clear  
Wind Chill: 18°   Ceiling: Unl
Heat Index: 18°   Visibility: 6mi
Dew Point: 11°   Wind: 3mph
Humidity: 64%   Direction: NA
Pressure: 29.97"   Gusts: NA
Location:  51.63°N, 0.04°W
Report Text: EGLC 311950Z VRB03KT CAVOK 18/11 Q1015
Loading
Personal Weather Stations






























Interactive Weather Map
Tropical Storm Tracking
New forecast layout! Learn more

10-Day Weather Forecast

Advertisements
Track Severe Weather on mobile